Terminal Aerodrome Forecast
Issued by NWS Sioux Falls, SD

Home | Current Version | Previous Version | Text Only | Print | Product List | Glossary On
Versions: 1 2 3 4 5 6 7 8 9 10 11 12 13 14 15 16 17 18 19
000
FTUS43 KFSD 271139
TAFFSD
TAF
KFSD 271139Z 2712/2812 34014KT P6SM OVC015
     FM271600 33012G19KT P6SM OVC020
     FM272000 33009KT P6SM SCT035
     FM280200 03007KT P6SM FEW200
     FM280900 05005KT P6SM BKN200=

USA.gov is the U.S. government's official web portal to all federal, state and local government web resources and services.